sensor_id;sensor_type;location;lat;lon;timestamp;P1;durP1;ratioP1;P2;durP2;ratioP2
11535;SDS011;5824;49.336;8.652;2022-10-30T00:00:29;19.10;;;7.80;;
11535;SDS011;5824;49.336;8.652;2022-10-30T00:02:55;12.60;;;6.73;;
11535;SDS011;5824;49.336;8.652;2022-10-30T00:05:20;13.33;;;7.23;;
11535;SDS011;5824;49.336;8.652;2022-10-30T00:07:46;21.40;;;8.40;;
11535;SDS011;5824;49.336;8.652;2022-10-30T00:10:12;15.60;;;6.83;;
11535;SDS011;5824;49.336;8.652;2022-10-30T00:12:38;15.00;;;7.93;;
11535;SDS011;5824;49.336;8.652;2022-10-30T00:15:05;19.90;;;7.43;;
11535;SDS011;5824;49.336;8.652;2022-10-30T00:17:30;15.80;;;6.80;;
11535;SDS011;5824;49.336;8.652;2022-10-30T00:19:57;24.83;;;8.03;;
11535;SDS011;5824;49.336;8.652;2022-10-30T00:22:22;17.73;;;7.60;;
11535;SDS011;5824;49.336;8.652;2022-10-30T00:24:48;10.37;;;6.33;;
11535;SDS011;5824;49.336;8.652;2022-10-30T00:27:13;15.33;;;6.50;;
11535;SDS011;5824;49.336;8.652;2022-10-30T00:29:39;18.00;;;7.63;;
11535;SDS011;5824;49.336;8.652;2022-10-30T00:32:05;21.87;;;7.70;;
11535;SDS011;5824;49.336;8.652;2022-10-30T00:34:31;15.63;;;6.40;;
11535;SDS011;5824;49.336;8.652;2022-10-30T00:36:57;10.60;;;6.57;;
11535;SDS011;5824;49.336;8.652;2022-10-30T00:39:22;15.87;;;8.00;;
11535;SDS011;5824;49.336;8.652;2022-10-30T00:41:48;12.43;;;7.00;;
11535;SDS011;5824;49.336;8.652;2022-10-30T00:44:33;16.37;;;8.20;;
11535;SDS011;5824;49.336;8.652;2022-10-30T00:47:15;17.80;;;7.60;;
11535;SDS011;5824;49.336;8.652;2022-10-30T00:49:58;16.50;;;8.00;;
11535;SDS011;5824;49.336;8.652;2022-10-30T00:52:26;14.97;;;8.40;;
11535;SDS011;5824;49.336;8.652;2022-10-30T00:54:55;16.43;;;7.60;;
11535;SDS011;5824;49.336;8.652;2022-10-30T00:57:24;17.53;;;7.20;;
11535;SDS011;5824;49.336;8.652;2022-10-30T00:59:50;17.50;;;7.53;;
11535;SDS011;5824;49.336;8.652;2022-10-30T01:02:16;13.80;;;7.40;;
11535;SDS011;5824;49.336;8.652;2022-10-30T01:04:44;16.87;;;7.40;;
11535;SDS011;5824;49.336;8.652;2022-10-30T01:07:13;16.43;;;7.13;;
11535;SDS011;5824;49.336;8.652;2022-10-30T01:09:40;14.17;;;6.20;;
11535;SDS011;5824;49.336;8.652;2022-10-30T01:12:07;19.87;;;7.40;;
11535;SDS011;5824;49.336;8.652;2022-10-30T01:14:33;12.83;;;7.40;;
11535;SDS011;5824;49.336;8.652;2022-10-30T01:22:34;16.60;;;6.63;;
11535;SDS011;5824;49.336;8.652;2022-10-30T01:39:03;15.90;;;7.63;;
11535;SDS011;5824;49.336;8.652;2022-10-30T01:41:37;14.13;;;6.87;;
11535;SDS011;5824;49.336;8.652;2022-10-30T01:44:05;17.10;;;7.00;;
11535;SDS011;5824;49.336;8.652;2022-10-30T01:46:53;23.43;;;9.20;;
11535;SDS011;5824;49.336;8.652;2022-10-30T01:57:56;20.00;;;8.67;;
11535;SDS011;5824;49.336;8.652;2022-10-30T02:00:51;21.30;;;7.47;;
11535;SDS011;5824;49.336;8.652;2022-10-30T02:03:20;14.20;;;7.60;;
11535;SDS011;5824;49.336;8.652;2022-10-30T02:05:47;11.83;;;6.47;;
11535;SDS011;5824;49.336;8.652;2022-10-30T02:08:14;18.73;;;7.30;;
11535;SDS011;5824;49.336;8.652;2022-10-30T02:10:40;18.40;;;8.10;;
11535;SDS011;5824;49.336;8.652;2022-10-30T02:13:08;13.97;;;8.60;;
11535;SDS011;5824;49.336;8.652;2022-10-30T02:15:34;18.00;;;8.70;;
11535;SDS011;5824;49.336;8.652;2022-10-30T02:18:00;13.37;;;7.23;;
11535;SDS011;5824;49.336;8.652;2022-10-30T02:20:26;19.27;;;7.63;;
11535;SDS011;5824;49.336;8.652;2022-10-30T02:22:52;14.03;;;7.80;;
11535;SDS011;5824;49.336;8.652;2022-10-30T02:25:18;15.40;;;8.00;;
11535;SDS011;5824;49.336;8.652;2022-10-30T02:27:43;16.93;;;9.33;;
11535;SDS011;5824;49.336;8.652;2022-10-30T02:30:09;34.93;;;14.50;;
11535;SDS011;5824;49.336;8.652;2022-10-30T02:32:35;28.10;;;12.90;;
11535;SDS011;5824;49.336;8.652;2022-10-30T02:35:00;23.50;;;12.03;;
11535;SDS011;5824;49.336;8.652;2022-10-30T02:37:26;24.17;;;12.23;;
11535;SDS011;5824;49.336;8.652;2022-10-30T02:39:51;31.50;;;14.43;;
11535;SDS011;5824;49.336;8.652;2022-10-30T02:42:17;20.50;;;9.03;;
11535;SDS011;5824;49.336;8.652;2022-10-30T02:44:43;24.57;;;10.30;;
11535;SDS011;5824;49.336;8.652;2022-10-30T02:47:08;23.10;;;10.37;;
11535;SDS011;5824;49.336;8.652;2022-10-30T02:49:34;21.57;;;10.13;;
11535;SDS011;5824;49.336;8.652;2022-10-30T02:52:00;20.20;;;8.20;;
11535;SDS011;5824;49.336;8.652;2022-10-30T02:54:26;24.17;;;9.90;;
11535;SDS011;5824;49.336;8.652;2022-10-30T02:56:51;18.50;;;8.13;;
11535;SDS011;5824;49.336;8.652;2022-10-30T02:59:17;20.30;;;8.40;;
11535;SDS011;5824;49.336;8.652;2022-10-30T03:01:42;17.37;;;8.20;;
11535;SDS011;5824;49.336;8.652;2022-10-30T03:04:08;18.33;;;7.73;;
11535;SDS011;5824;49.336;8.652;2022-10-30T03:06:33;27.63;;;10.77;;
11535;SDS011;5824;49.336;8.652;2022-10-30T03:08:59;19.00;;;8.97;;
11535;SDS011;5824;49.336;8.652;2022-10-30T03:11:25;19.13;;;9.50;;
11535;SDS011;5824;49.336;8.652;2022-10-30T03:13:50;18.20;;;9.80;;
11535;SDS011;5824;49.336;8.652;2022-10-30T03:16:17;22.13;;;9.23;;
11535;SDS011;5824;49.336;8.652;2022-10-30T03:18:44;21.00;;;10.40;;
11535;SDS011;5824;49.336;8.652;2022-10-30T03:21:12;24.13;;;10.00;;
11535;SDS011;5824;49.336;8.652;2022-10-30T03:23:39;24.50;;;9.53;;
11535;SDS011;5824;49.336;8.652;2022-10-30T03:26:05;20.50;;;9.00;;
11535;SDS011;5824;49.336;8.652;2022-10-30T03:28:31;15.30;;;8.00;;
11535;SDS011;5824;49.336;8.652;2022-10-30T03:31:00;18.10;;;9.00;;
11535;SDS011;5824;49.336;8.652;2022-10-30T03:33:31;12.17;;;6.90;;
11535;SDS011;5824;49.336;8.652;2022-10-30T03:35:58;15.63;;;6.80;;
11535;SDS011;5824;49.336;8.652;2022-10-30T03:38:24;11.87;;;6.53;;
11535;SDS011;5824;49.336;8.652;2022-10-30T03:40:50;20.13;;;7.70;;
11535;SDS011;5824;49.336;8.652;2022-10-30T03:43:16;14.83;;;7.23;;
11535;SDS011;5824;49.336;8.652;2022-10-30T03:45:49;12.33;;;7.20;;
11535;SDS011;5824;49.336;8.652;2022-10-30T03:48:19;13.87;;;7.37;;
11535;SDS011;5824;49.336;8.652;2022-10-30T03:50:46;11.30;;;7.33;;
11535;SDS011;5824;49.336;8.652;2022-10-30T03:53:12;20.63;;;8.00;;
11535;SDS011;5824;49.336;8.652;2022-10-30T03:55:38;14.33;;;6.97;;
11535;SDS011;5824;49.336;8.652;2022-10-30T03:58:04;17.27;;;7.27;;
11535;SDS011;5824;49.336;8.652;2022-10-30T04:00:30;15.27;;;7.47;;
11535;SDS011;5824;49.336;8.652;2022-10-30T04:02:56;13.73;;;6.63;;
11535;SDS011;5824;49.336;8.652;2022-10-30T04:05:22;17.63;;;7.13;;
11535;SDS011;5824;49.336;8.652;2022-10-30T04:07:53;16.37;;;6.90;;
11535;SDS011;5824;49.336;8.652;2022-10-30T04:10:23;15.33;;;6.60;;
11535;SDS011;5824;49.336;8.652;2022-10-30T04:12:48;13.93;;;6.70;;
11535;SDS011;5824;49.336;8.652;2022-10-30T04:15:14;13.57;;;6.23;;
11535;SDS011;5824;49.336;8.652;2022-10-30T04:17:40;13.53;;;7.17;;
11535;SDS011;5824;49.336;8.652;2022-10-30T04:20:12;12.77;;;6.80;;
11535;SDS011;5824;49.336;8.652;2022-10-30T04:22:38;10.07;;;6.33;;
11535;SDS011;5824;49.336;8.652;2022-10-30T04:25:03;12.27;;;5.90;;
11535;SDS011;5824;49.336;8.652;2022-10-30T04:27:29;13.60;;;6.20;;
11535;SDS011;5824;49.336;8.652;2022-10-30T04:29:55;15.03;;;7.00;;
11535;SDS011;5824;49.336;8.652;2022-10-30T04:32:20;13.20;;;5.90;;
11535;SDS011;5824;49.336;8.652;2022-10-30T04:34:46;9.77;;;5.63;;
11535;SDS011;5824;49.336;8.652;2022-10-30T04:37:11;11.03;;;6.73;;
11535;SDS011;5824;49.336;8.652;2022-10-30T04:39:37;13.43;;;6.57;;
11535;SDS011;5824;49.336;8.652;2022-10-30T04:42:02;17.77;;;7.97;;
11535;SDS011;5824;49.336;8.652;2022-10-30T04:44:28;13.60;;;7.10;;
11535;SDS011;5824;49.336;8.652;2022-10-30T04:46:53;12.57;;;7.23;;
11535;SDS011;5824;49.336;8.652;2022-10-30T04:49:19;13.70;;;6.53;;
11535;SDS011;5824;49.336;8.652;2022-10-30T04:51:44;12.63;;;6.33;;
11535;SDS011;5824;49.336;8.652;2022-10-30T04:54:11;14.47;;;6.50;;
11535;SDS011;5824;49.336;8.652;2022-10-30T04:56:36;13.40;;;6.47;;
11535;SDS011;5824;49.336;8.652;2022-10-30T04:59:02;12.70;;;6.70;;
11535;SDS011;5824;49.336;8.652;2022-10-30T05:01:28;14.40;;;6.80;;
11535;SDS011;5824;49.336;8.652;2022-10-30T05:03:54;15.53;;;7.63;;
11535;SDS011;5824;49.336;8.652;2022-10-30T05:06:26;15.20;;;7.20;;
11535;SDS011;5824;49.336;8.652;2022-10-30T05:08:54;8.90;;;6.00;;
11535;SDS011;5824;49.336;8.652;2022-10-30T05:11:20;19.50;;;6.80;;
11535;SDS011;5824;49.336;8.652;2022-10-30T05:13:45;11.23;;;6.57;;
11535;SDS011;5824;49.336;8.652;2022-10-30T05:16:11;10.60;;;6.20;;
11535;SDS011;5824;49.336;8.652;2022-10-30T05:18:36;15.00;;;6.60;;
11535;SDS011;5824;49.336;8.652;2022-10-30T05:21:02;11.80;;;6.53;;
11535;SDS011;5824;49.336;8.652;2022-10-30T05:23:28;22.80;;;7.17;;
11535;SDS011;5824;49.336;8.652;2022-10-30T05:25:53;10.67;;;6.83;;
11535;SDS011;5824;49.336;8.652;2022-10-30T05:28:19;11.97;;;5.97;;
11535;SDS011;5824;49.336;8.652;2022-10-30T05:30:44;15.50;;;7.20;;
11535;SDS011;5824;49.336;8.652;2022-10-30T05:33:10;14.47;;;6.77;;
11535;SDS011;5824;49.336;8.652;2022-10-30T05:35:36;13.40;;;7.00;;
11535;SDS011;5824;49.336;8.652;2022-10-30T05:38:03;14.00;;;6.80;;
11535;SDS011;5824;49.336;8.652;2022-10-30T05:40:30;18.83;;;7.43;;
11535;SDS011;5824;49.336;8.652;2022-10-30T05:42:56;13.20;;;6.80;;
11535;SDS011;5824;49.336;8.652;2022-10-30T05:45:22;13.63;;;6.80;;
11535;SDS011;5824;49.336;8.652;2022-10-30T05:47:55;11.30;;;7.40;;
11535;SDS011;5824;49.336;8.652;2022-10-30T05:50:21;15.93;;;6.50;;
11535;SDS011;5824;49.336;8.652;2022-10-30T05:52:47;11.23;;;5.87;;
11535;SDS011;5824;49.336;8.652;2022-10-30T05:55:13;15.43;;;7.00;;
11535;SDS011;5824;49.336;8.652;2022-10-30T05:57:38;14.93;;;7.27;;
11535;SDS011;5824;49.336;8.652;2022-10-30T06:00:04;16.73;;;7.53;;
11535;SDS011;5824;49.336;8.652;2022-10-30T06:02:30;9.43;;;6.30;;
11535;SDS011;5824;49.336;8.652;2022-10-30T06:04:56;23.97;;;7.30;;
11535;SDS011;5824;49.336;8.652;2022-10-30T06:07:22;16.83;;;7.03;;
11535;SDS011;5824;49.336;8.652;2022-10-30T06:09:47;11.00;;;6.93;;
11535;SDS011;5824;49.336;8.652;2022-10-30T06:12:13;16.77;;;7.17;;
11535;SDS011;5824;49.336;8.652;2022-10-30T06:14:38;11.70;;;6.50;;
11535;SDS011;5824;49.336;8.652;2022-10-30T06:17:04;14.40;;;6.50;;
11535;SDS011;5824;49.336;8.652;2022-10-30T06:19:29;16.53;;;6.73;;
11535;SDS011;5824;49.336;8.652;2022-10-30T06:21:55;17.43;;;6.43;;
11535;SDS011;5824;49.336;8.652;2022-10-30T06:24:20;11.73;;;7.20;;
11535;SDS011;5824;49.336;8.652;2022-10-30T06:26:46;15.30;;;6.97;;
11535;SDS011;5824;49.336;8.652;2022-10-30T06:29:11;14.67;;;7.47;;
11535;SDS011;5824;49.336;8.652;2022-10-30T06:31:37;20.90;;;7.53;;
11535;SDS011;5824;49.336;8.652;2022-10-30T06:34:02;12.13;;;6.43;;
11535;SDS011;5824;49.336;8.652;2022-10-30T06:36:29;15.67;;;6.17;;
11535;SDS011;5824;49.336;8.652;2022-10-30T06:38:54;11.30;;;6.20;;
11535;SDS011;5824;49.336;8.652;2022-10-30T06:41:20;16.90;;;7.63;;
11535;SDS011;5824;49.336;8.652;2022-10-30T06:43:46;17.97;;;7.83;;
11535;SDS011;5824;49.336;8.652;2022-10-30T06:46:11;16.73;;;6.47;;
11535;SDS011;5824;49.336;8.652;2022-10-30T06:48:37;17.10;;;6.60;;
11535;SDS011;5824;49.336;8.652;2022-10-30T06:51:02;13.10;;;6.77;;
11535;SDS011;5824;49.336;8.652;2022-10-30T06:53:28;14.23;;;7.10;;
11535;SDS011;5824;49.336;8.652;2022-10-30T06:55:58;10.30;;;6.87;;
11535;SDS011;5824;49.336;8.652;2022-10-30T06:58:25;17.97;;;7.37;;
11535;SDS011;5824;49.336;8.652;2022-10-30T07:00:51;14.07;;;6.47;;
11535;SDS011;5824;49.336;8.652;2022-10-30T07:03:17;14.20;;;6.50;;
11535;SDS011;5824;49.336;8.652;2022-10-30T07:05:43;8.80;;;6.50;;
11535;SDS011;5824;49.336;8.652;2022-10-30T07:08:08;16.20;;;7.73;;
11535;SDS011;5824;49.336;8.652;2022-10-30T07:10:34;11.57;;;6.50;;
11535;SDS011;5824;49.336;8.652;2022-10-30T07:13:00;14.83;;;7.60;;
11535;SDS011;5824;49.336;8.652;2022-10-30T07:15:26;24.13;;;7.67;;
11535;SDS011;5824;49.336;8.652;2022-10-30T07:17:55;18.37;;;7.37;;
11535;SDS011;5824;49.336;8.652;2022-10-30T07:20:22;17.50;;;6.60;;
11535;SDS011;5824;49.336;8.652;2022-10-30T07:22:49;12.53;;;7.57;;
11535;SDS011;5824;49.336;8.652;2022-10-30T07:25:14;17.27;;;7.17;;
11535;SDS011;5824;49.336;8.652;2022-10-30T07:27:41;16.87;;;6.80;;
11535;SDS011;5824;49.336;8.652;2022-10-30T07:30:11;12.43;;;7.10;;
11535;SDS011;5824;49.336;8.652;2022-10-30T07:32:38;14.67;;;7.30;;
11535;SDS011;5824;49.336;8.652;2022-10-30T07:35:04;17.47;;;8.03;;
11535;SDS011;5824;49.336;8.652;2022-10-30T07:37:30;14.83;;;7.20;;
11535;SDS011;5824;49.336;8.652;2022-10-30T07:39:56;19.27;;;7.20;;
11535;SDS011;5824;49.336;8.652;2022-10-30T07:42:21;17.43;;;7.63;;
11535;SDS011;5824;49.336;8.652;2022-10-30T07:44:47;19.63;;;7.30;;
11535;SDS011;5824;49.336;8.652;2022-10-30T07:47:12;13.23;;;6.40;;
11535;SDS011;5824;49.336;8.652;2022-10-30T07:49:38;17.27;;;6.70;;
11535;SDS011;5824;49.336;8.652;2022-10-30T07:52:03;15.63;;;6.80;;
11535;SDS011;5824;49.336;8.652;2022-10-30T07:54:29;17.63;;;7.67;;
11535;SDS011;5824;49.336;8.652;2022-10-30T07:56:54;17.63;;;7.40;;
11535;SDS011;5824;49.336;8.652;2022-10-30T07:59:21;17.20;;;7.05;;
11535;SDS011;5824;49.336;8.652;2022-10-30T08:01:47;12.80;;;7.00;;
11535;SDS011;5824;49.336;8.652;2022-10-30T08:04:13;17.80;;;7.37;;
11535;SDS011;5824;49.336;8.652;2022-10-30T08:06:39;16.93;;;7.67;;
11535;SDS011;5824;49.336;8.652;2022-10-30T08:09:05;18.93;;;7.30;;
11535;SDS011;5824;49.336;8.652;2022-10-30T08:11:30;25.80;;;8.23;;
11535;SDS011;5824;49.336;8.652;2022-10-30T08:13:56;20.97;;;7.93;;
11535;SDS011;5824;49.336;8.652;2022-10-30T08:16:21;18.70;;;8.07;;
11535;SDS011;5824;49.336;8.652;2022-10-30T08:18:47;12.53;;;7.60;;
11535;SDS011;5824;49.336;8.652;2022-10-30T08:21:12;17.73;;;9.00;;
11535;SDS011;5824;49.336;8.652;2022-10-30T08:23:38;18.10;;;8.20;;
11535;SDS011;5824;49.336;8.652;2022-10-30T08:26:04;18.23;;;8.13;;
11535;SDS011;5824;49.336;8.652;2022-10-30T08:28:30;26.10;;;8.70;;
11535;SDS011;5824;49.336;8.652;2022-10-30T08:30:56;14.70;;;7.80;;
11535;SDS011;5824;49.336;8.652;2022-10-30T08:33:22;10.87;;;6.90;;
11535;SDS011;5824;49.336;8.652;2022-10-30T08:35:48;18.83;;;8.80;;
11535;SDS011;5824;49.336;8.652;2022-10-30T08:38:15;13.57;;;7.93;;
11535;SDS011;5824;49.336;8.652;2022-10-30T08:40:42;17.30;;;8.43;;
11535;SDS011;5824;49.336;8.652;2022-10-30T08:43:08;17.90;;;7.80;;
11535;SDS011;5824;49.336;8.652;2022-10-30T08:45:34;15.57;;;7.33;;
11535;SDS011;5824;49.336;8.652;2022-10-30T08:48:00;17.67;;;7.20;;
11535;SDS011;5824;49.336;8.652;2022-10-30T08:50:30;15.37;;;8.10;;
11535;SDS011;5824;49.336;8.652;2022-10-30T08:53:04;19.97;;;8.00;;
11535;SDS011;5824;49.336;8.652;2022-10-30T08:55:31;29.10;;;8.17;;
11535;SDS011;5824;49.336;8.652;2022-10-30T08:57:58;21.20;;;8.20;;
11535;SDS011;5824;49.336;8.652;2022-10-30T09:00:24;17.07;;;7.90;;
11535;SDS011;5824;49.336;8.652;2022-10-30T09:02:50;18.17;;;7.60;;
11535;SDS011;5824;49.336;8.652;2022-10-30T09:05:16;16.07;;;7.50;;
11535;SDS011;5824;49.336;8.652;2022-10-30T09:07:42;12.73;;;6.77;;
11535;SDS011;5824;49.336;8.652;2022-10-30T09:10:07;14.73;;;7.60;;
11535;SDS011;5824;49.336;8.652;2022-10-30T09:12:33;10.53;;;6.40;;
11535;SDS011;5824;49.336;8.652;2022-10-30T09:14:59;15.80;;;7.63;;
11535;SDS011;5824;49.336;8.652;2022-10-30T09:17:24;16.50;;;7.30;;
11535;SDS011;5824;49.336;8.652;2022-10-30T09:19:50;14.70;;;6.20;;
11535;SDS011;5824;49.336;8.652;2022-10-30T09:22:16;14.10;;;6.28;;
11535;SDS011;5824;49.336;8.652;2022-10-30T09:24:42;11.60;;;6.13;;
11535;SDS011;5824;49.336;8.652;2022-10-30T09:27:07;14.20;;;6.60;;
11535;SDS011;5824;49.336;8.652;2022-10-30T09:29:33;17.40;;;6.85;;
11535;SDS011;5824;49.336;8.652;2022-10-30T09:31:59;22.80;;;6.72;;
11535;SDS011;5824;49.336;8.652;2022-10-30T09:34:25;13.63;;;6.30;;
11535;SDS011;5824;49.336;8.652;2022-10-30T09:36:51;15.73;;;6.15;;
11535;SDS011;5824;49.336;8.652;2022-10-30T09:39:17;14.75;;;6.55;;
11535;SDS011;5824;49.336;8.652;2022-10-30T09:50:45;17.42;;;6.78;;
11535;SDS011;5824;49.336;8.652;2022-10-30T09:56:08;20.27;;;7.18;;
11535;SDS011;5824;49.336;8.652;2022-10-30T10:01:15;14.40;;;7.45;;
11535;SDS011;5824;49.336;8.652;2022-10-30T10:06:17;15.32;;;6.47;;
11535;SDS011;5824;49.336;8.652;2022-10-30T10:09:03;16.38;;;6.70;;
11535;SDS011;5824;49.336;8.652;2022-10-30T10:11:34;14.15;;;6.70;;
11535;SDS011;5824;49.336;8.652;2022-10-30T10:14:11;17.65;;;7.40;;
11535;SDS011;5824;49.336;8.652;2022-10-30T10:16:47;14.77;;;6.65;;
11535;SDS011;5824;49.336;8.652;2022-10-30T10:19:20;15.13;;;6.63;;
11535;SDS011;5824;49.336;8.652;2022-10-30T10:21:57;14.23;;;6.93;;
11535;SDS011;5824;49.336;8.652;2022-10-30T10:24:25;17.50;;;6.65;;
11535;SDS011;5824;49.336;8.652;2022-10-30T10:26:59;14.07;;;7.25;;
11535;SDS011;5824;49.336;8.652;2022-10-30T10:29:48;19.27;;;6.70;;
11535;SDS011;5824;49.336;8.652;2022-10-30T10:38:35;20.85;;;6.78;;
11535;SDS011;5824;49.336;8.652;2022-10-30T10:41:22;14.75;;;5.60;;
11535;SDS011;5824;49.336;8.652;2022-10-30T10:52:28;12.23;;;5.95;;
11535;SDS011;5824;49.336;8.652;2022-10-30T10:55:17;13.13;;;5.90;;
11535;SDS011;5824;49.336;8.652;2022-10-30T10:57:46;16.42;;;6.63;;
11535;SDS011;5824;49.336;8.652;2022-10-30T11:00:16;12.00;;;6.28;;
11535;SDS011;5824;49.336;8.652;2022-10-30T11:02:50;13.60;;;6.18;;
11535;SDS011;5824;49.336;8.652;2022-10-30T11:05:40;12.40;;;6.18;;
11535;SDS011;5824;49.336;8.652;2022-10-30T11:08:25;10.35;;;5.75;;
11535;SDS011;5824;49.336;8.652;2022-10-30T11:10:55;19.38;;;6.72;;
11535;SDS011;5824;49.336;8.652;2022-10-30T11:13:23;24.77;;;6.65;;
11535;SDS011;5824;49.336;8.652;2022-10-30T11:18:23;16.17;;;6.40;;
11535;SDS011;5824;49.336;8.652;2022-10-30T11:21:06;12.50;;;5.57;;
11535;SDS011;5824;49.336;8.652;2022-10-30T11:23:39;14.23;;;6.30;;
11535;SDS011;5824;49.336;8.652;2022-10-30T11:28:50;15.30;;;5.82;;
11535;SDS011;5824;49.336;8.652;2022-10-30T11:31:24;15.35;;;6.00;;
11535;SDS011;5824;49.336;8.652;2022-10-30T11:36:42;18.42;;;6.03;;
11535;SDS011;5824;49.336;8.652;2022-10-30T11:41:53;15.93;;;5.93;;
11535;SDS011;5824;49.336;8.652;2022-10-30T11:44:26;13.00;;;5.68;;
11535;SDS011;5824;49.336;8.652;2022-10-30T11:46:55;11.88;;;6.07;;
11535;SDS011;5824;49.336;8.652;2022-10-30T11:52:04;17.13;;;5.85;;
11535;SDS011;5824;49.336;8.652;2022-10-30T11:54:34;14.18;;;5.45;;
11535;SDS011;5824;49.336;8.652;2022-10-30T11:57:02;15.18;;;5.53;;
11535;SDS011;5824;49.336;8.652;2022-10-30T11:59:28;12.85;;;5.40;;
11535;SDS011;5824;49.336;8.652;2022-10-30T12:01:58;12.35;;;5.20;;
11535;SDS011;5824;49.336;8.652;2022-10-30T12:04:26;25.67;;;11.50;;
11535;SDS011;5824;49.336;8.652;2022-10-30T12:09:43;56.47;;;31.70;;
11535;SDS011;5824;49.336;8.652;2022-10-30T12:12:22;58.90;;;33.55;;
11535;SDS011;5824;49.336;8.652;2022-10-30T12:15:06;27.42;;;12.05;;
11535;SDS011;5824;49.336;8.652;2022-10-30T12:17:33;28.90;;;13.82;;
11535;SDS011;5824;49.336;8.652;2022-10-30T12:19:59;18.92;;;9.48;;
11535;SDS011;5824;49.336;8.652;2022-10-30T12:22:29;11.60;;;4.97;;
11535;SDS011;5824;49.336;8.652;2022-10-30T12:25:01;12.65;;;5.15;;
11535;SDS011;5824;49.336;8.652;2022-10-30T12:27:29;13.95;;;5.30;;
11535;SDS011;5824;49.336;8.652;2022-10-30T12:38:12;11.52;;;4.68;;
11535;SDS011;5824;49.336;8.652;2022-10-30T12:40:55;14.63;;;6.47;;
11535;SDS011;5824;49.336;8.652;2022-10-30T12:43:28;12.77;;;6.05;;
11535;SDS011;5824;49.336;8.652;2022-10-30T12:46:03;18.45;;;5.78;;
11535;SDS011;5824;49.336;8.652;2022-10-30T12:48:46;11.80;;;6.30;;
11535;SDS011;5824;49.336;8.652;2022-10-30T12:51:20;13.10;;;5.65;;
11535;SDS011;5824;49.336;8.652;2022-10-30T12:53:59;9.82;;;5.57;;
11535;SDS011;5824;49.336;8.652;2022-10-30T12:56:42;15.43;;;5.78;;
11535;SDS011;5824;49.336;8.652;2022-10-30T12:59:25;10.93;;;5.60;;
11535;SDS011;5824;49.336;8.652;2022-10-30T13:04:57;11.60;;;5.60;;
11535;SDS011;5824;49.336;8.652;2022-10-30T13:07:30;17.77;;;6.03;;
11535;SDS011;5824;49.336;8.652;2022-10-30T13:10:15;17.88;;;6.07;;
11535;SDS011;5824;49.336;8.652;2022-10-30T13:12:43;18.92;;;5.63;;
11535;SDS011;5824;49.336;8.652;2022-10-30T13:15:20;15.23;;;5.93;;
11535;SDS011;5824;49.336;8.652;2022-10-30T13:17:50;13.60;;;5.70;;
11535;SDS011;5824;49.336;8.652;2022-10-30T13:20:15;13.13;;;6.20;;
11535;SDS011;5824;49.336;8.652;2022-10-30T13:22:45;13.50;;;5.90;;
11535;SDS011;5824;49.336;8.652;2022-10-30T13:25:21;17.70;;;6.40;;
11535;SDS011;5824;49.336;8.652;2022-10-30T13:30:45;15.60;;;6.27;;
11535;SDS011;5824;49.336;8.652;2022-10-30T13:33:37;18.03;;;6.43;;
11535;SDS011;5824;49.336;8.652;2022-10-30T13:36:20;12.43;;;6.07;;
11535;SDS011;5824;49.336;8.652;2022-10-30T13:44:52;17.77;;;6.93;;
11535;SDS011;5824;49.336;8.652;2022-10-30T13:47:32;10.70;;;5.90;;
11535;SDS011;5824;49.336;8.652;2022-10-30T13:52:46;15.00;;;6.40;;
11535;SDS011;5824;49.336;8.652;2022-10-30T13:58:06;14.03;;;6.27;;
11535;SDS011;5824;49.336;8.652;2022-10-30T14:00:59;15.00;;;6.80;;
11535;SDS011;5824;49.336;8.652;2022-10-30T14:15:15;14.67;;;6.60;;
11535;SDS011;5824;49.336;8.652;2022-10-30T14:20:39;15.80;;;5.73;;
11535;SDS011;5824;49.336;8.652;2022-10-30T14:28:27;18.60;;;6.83;;
11535;SDS011;5824;49.336;8.652;2022-10-30T14:31:06;23.33;;;7.70;;
11535;SDS011;5824;49.336;8.652;2022-10-30T14:33:44;17.00;;;7.90;;
11535;SDS011;5824;49.336;8.652;2022-10-30T14:38:40;9.97;;;6.30;;
11535;SDS011;5824;49.336;8.652;2022-10-30T14:41:14;13.60;;;6.80;;
11535;SDS011;5824;49.336;8.652;2022-10-30T14:46:27;12.80;;;6.33;;
11535;SDS011;5824;49.336;8.652;2022-10-30T14:55:04;18.63;;;9.27;;
11535;SDS011;5824;49.336;8.652;2022-10-30T15:05:42;21.97;;;10.60;;
11535;SDS011;5824;49.336;8.652;2022-10-30T15:08:39;16.13;;;10.20;;
11535;SDS011;5824;49.336;8.652;2022-10-30T15:11:26;18.87;;;10.80;;
11535;SDS011;5824;49.336;8.652;2022-10-30T15:14:17;19.60;;;9.83;;
11535;SDS011;5824;49.336;8.652;2022-10-30T15:16:48;16.37;;;9.20;;
11535;SDS011;5824;49.336;8.652;2022-10-30T15:19:16;18.87;;;10.20;;
11535;SDS011;5824;49.336;8.652;2022-10-30T15:21:44;19.90;;;10.20;;
11535;SDS011;5824;49.336;8.652;2022-10-30T15:24:17;16.43;;;9.13;;
11535;SDS011;5824;49.336;8.652;2022-10-30T15:26:49;17.77;;;9.30;;
11535;SDS011;5824;49.336;8.652;2022-10-30T15:29:23;17.27;;;9.50;;
11535;SDS011;5824;49.336;8.652;2022-10-30T15:31:56;14.43;;;8.30;;
11535;SDS011;5824;49.336;8.652;2022-10-30T15:34:30;15.23;;;7.07;;
11535;SDS011;5824;49.336;8.652;2022-10-30T15:36:59;13.73;;;7.20;;
11535;SDS011;5824;49.336;8.652;2022-10-30T15:39:35;16.03;;;7.07;;
11535;SDS011;5824;49.336;8.652;2022-10-30T15:42:01;19.73;;;7.63;;
11535;SDS011;5824;49.336;8.652;2022-10-30T15:46:56;17.60;;;7.80;;
11535;SDS011;5824;49.336;8.652;2022-10-30T15:51:57;15.83;;;7.67;;
11535;SDS011;5824;49.336;8.652;2022-10-30T15:54:24;14.53;;;7.90;;
11535;SDS011;5824;49.336;8.652;2022-10-30T15:56:52;16.57;;;7.57;;
11535;SDS011;5824;49.336;8.652;2022-10-30T15:59:22;17.77;;;8.00;;
11535;SDS011;5824;49.336;8.652;2022-10-30T16:01:51;19.70;;;9.00;;
11535;SDS011;5824;49.336;8.652;2022-10-30T16:09:18;18.00;;;9.67;;
11535;SDS011;5824;49.336;8.652;2022-10-30T16:11:45;19.87;;;8.60;;
11535;SDS011;5824;49.336;8.652;2022-10-30T16:14:13;17.50;;;8.03;;
11535;SDS011;5824;49.336;8.652;2022-10-30T16:16:41;13.57;;;8.17;;
11535;SDS011;5824;49.336;8.652;2022-10-30T16:19:10;14.60;;;8.53;;
11535;SDS011;5824;49.336;8.652;2022-10-30T16:21:44;13.13;;;7.80;;
11535;SDS011;5824;49.336;8.652;2022-10-30T16:24:12;17.97;;;8.70;;
11535;SDS011;5824;49.336;8.652;2022-10-30T16:26:39;15.33;;;8.10;;
11535;SDS011;5824;49.336;8.652;2022-10-30T16:31:42;16.27;;;7.60;;
11535;SDS011;5824;49.336;8.652;2022-10-30T16:34:16;13.43;;;7.73;;
11535;SDS011;5824;49.336;8.652;2022-10-30T16:36:50;13.63;;;7.60;;
11535;SDS011;5824;49.336;8.652;2022-10-30T16:39:16;26.60;;;14.70;;
11535;SDS011;5824;49.336;8.652;2022-10-30T16:41:43;19.53;;;9.20;;
11535;SDS011;5824;49.336;8.652;2022-10-30T16:44:13;15.20;;;7.40;;
11535;SDS011;5824;49.336;8.652;2022-10-30T16:49:22;14.67;;;8.93;;
11535;SDS011;5824;49.336;8.652;2022-10-30T16:52:04;17.03;;;7.70;;
11535;SDS011;5824;49.336;8.652;2022-10-30T16:54:31;22.73;;;8.07;;
11535;SDS011;5824;49.336;8.652;2022-10-30T16:57:02;20.57;;;8.47;;
11535;SDS011;5824;49.336;8.652;2022-10-30T16:59:34;16.00;;;7.70;;
11535;SDS011;5824;49.336;8.652;2022-10-30T17:02:04;14.40;;;7.40;;
11535;SDS011;5824;49.336;8.652;2022-10-30T17:04:38;15.77;;;8.13;;
11535;SDS011;5824;49.336;8.652;2022-10-30T17:07:21;17.57;;;10.73;;
11535;SDS011;5824;49.336;8.652;2022-10-30T17:09:50;13.93;;;8.37;;
11535;SDS011;5824;49.336;8.652;2022-10-30T17:12:21;19.37;;;7.50;;
11535;SDS011;5824;49.336;8.652;2022-10-30T17:17:43;30.50;;;16.10;;
11535;SDS011;5824;49.336;8.652;2022-10-30T17:20:32;30.53;;;18.77;;
11535;SDS011;5824;49.336;8.652;2022-10-30T17:23:12;24.73;;;12.90;;
11535;SDS011;5824;49.336;8.652;2022-10-30T17:25:40;27.87;;;13.97;;
11535;SDS011;5824;49.336;8.652;2022-10-30T17:28:05;22.97;;;11.33;;
11535;SDS011;5824;49.336;8.652;2022-10-30T17:30:40;22.50;;;11.00;;
11535;SDS011;5824;49.336;8.652;2022-10-30T17:33:23;22.40;;;10.50;;
11535;SDS011;5824;49.336;8.652;2022-10-30T17:35:54;26.00;;;12.17;;